Flight Track Log - Related Links

Times and Time Zones

All times are in EST time to prevent confusion due to time zone crossing. See the PCM8653 flight status page for this flight to view local times or setup timezone preferences in your user account.

Time Position Orientation Groundspeed Altitude Reporting Facility
EST Latitude Longitude Course Direction KTS MPH feet Rate Location/Type
Sat 01:00:18 PM 38.7000 -121.6167 339° North 102 117 1,400  Level Northern Cal TRACON
Sat 01:01:18 PM 38.7167 -121.6333 322° Northwest 115 132 2,600 1,179 Climbing Northern Cal TRACON
Sat 01:02:10 PM 38.7422 -121.6547 327° Northwest 112 129 3,600 1,221 Climbing Oakland Center
Sat 01:03:11 PM 38.7717 -121.6650 345° North 112 129 4,900 1,180 Climbing Oakland Center
Sat 01:04:12 PM 38.8014 -121.6767 343° North 111 128 6,000 541 Climbing Oakland Center
Sat 01:05:00 PM 38.9031 -121.6766 339° North  Level FlightAware Approximate
Sat 01:05:13 PM 38.8408 -121.6961 339° North 159 183 6,000  Level Oakland Center
Sat 01:06:15 PM 38.8869 -121.7125 345° North 171 197 6,000  Level Oakland Center
Sat 01:07:16 PM 38.9325 -121.7325 341° North 172 198 6,000  Level Oakland Center
Sat 01:08:17 PM 38.9769 -121.7514 342° North 170 196 6,000  Level Oakland Center
Sat 01:09:18 PM 39.0217 -121.7703 342° North 169 194 6,000  Level Oakland Center
Sat 01:10:19 PM 39.0744 -121.7933 341° North 167 192 6,000  Level Oakland Center
Sat 01:11:21 PM 39.1181 -121.8108 343° North 165 190 6,000  Level Oakland Center
Sat 01:12:22 PM 39.1617 -121.8306 341° North 165 190 6,000 -49 Level Oakland Center
Sat 01:13:23 PM 39.2058 -121.8489 342° North 166 191 5,900 -33 Descending Oakland Center
Sat 01:15:26 PM 39.2917 -121.8836 343° North 161 185 5,900  Level Oakland Center
Sat 01:16:27 PM 39.3347 -121.9033 340° North 162 186 5,900  Level Oakland Center
Sat 01:17:28 PM 39.3783 -121.9222 341° North 164 189 5,900  Level Oakland Center
Sat 01:18:29 PM 39.4214 -121.9403 342° North 163 188 5,900  Level Oakland Center
Sat 01:19:30 PM 39.4642 -121.9592 341° North 163 188 5,900  Level Oakland Center
Sat 01:20:32 PM 39.5097 -121.9803 340° North 163 188 5,900 -98 Level Oakland Center
Sat 01:21:33 PM 39.5533 -122.0017 339° North 166 191 5,700 -344 Descending Oakland Center
Sat 01:22:34 PM 39.6003 -122.0208 343° North 172 198 5,200 -443 Descending Oakland Center
Sat 01:23:35 PM 39.6486 -122.0414 342° North 179 206 4,800 -439 Descending Oakland Center
Sat 01:24:37 PM 39.7050 -122.0639 343° North 177 204 4,300 -390 Descending Oakland Center
Sat 01:25:38 PM 39.7519 -122.0831 343° North 177 204 4,000 -148 Descending Oakland Center
Sat 01:26:39 PM 39.7981 -122.1044 340° North 177 204 4,000  Level Oakland Center
Sat 01:27:40 PM 39.8436 -122.1242 342° North 175 201 4,000  Level Oakland Center
Sat 01:28:41 PM 39.8900 -122.1417 344° North 174 200 4,000  Level Oakland Center
Sat 01:29:43 PM 39.9381 -122.1400 North 173 199 4,000  Level Oakland Center
Sat 01:30:44 PM 39.9603 -122.1828 304° West 170 196 4,000  Level Oakland Center
Sat 01:31:45 PM 39.9664 -122.2350 279° West 167 192 4,000  Level Oakland Center
Sat 01:32:46 PM 40.0111 -122.2508 345° North 169 194 4,000 -146 Level Oakland Center
Sat 01:33:48 PM 40.0594 -122.2464 North 174 200 3,700 -488 Descending Oakland Center
Sat 01:34:49 PM 40.1236 -122.2442 North 191 220 3,000 -344 Descending Oakland Center
Sat 01:35:50 PM 40.1725 -122.2539 351° North 187 215 3,000  Level Oakland Center
Sat 01:36:51 PM 40.2211 -122.2653 350° North 183 211 3,000  Level Oakland Center
Sat 01:37:53 PM 40.2703 -122.2839 344° North 186 214 3,000  Level Oakland Center
Sat 01:38:54 PM 40.3189 -122.2969 348° North 183 211 3,000  Level Oakland Center
Sat 01:39:55 PM 40.3689 -122.2944 North 180 207 3,000 -443 Level Oakland Center
Sat 01:40:56 PM 40.4206 -122.2956 359° North 183 211 2,100 -976 Descending Oakland Center
Sat 01:41:58 PM 40.4836 -122.2872 North 191 220 1,000 -585 Descending Oakland Center
Sat 01:42:59 PM 40.5236 -122.2783 10° North 167 192 900 -98 Descending Oakland Center

Login

Don't have an account? Register now (free) for customized features, flight alerts, and more!